Time;durP1;ratioP1;P1;durP2;ratioP2;P2;SDS_P1;SDS_P2;PMS_P1;PMS_P2;Temp;Humidity;BMP_temperature;BMP_pressure;BME280_temperature;BME280_humidity;BME280_pressure;Samples;Min_cycle;Max_cycle;Signal;HPM_P1;HPM_P2
2023/09/12 00:02:36;;;;;;;11.13;10.13;;;24.90;99.90;;;;;;6210329;28;89086;-70
2023/09/12 00:05:38;;;;;;;9.35;8.45;;;24.90;99.90;;;;;;6219060;28;89019;-71
2023/09/12 00:08:40;;;;;;;7.90;7.20;;;24.90;99.90;;;;;;6228001;28;87954;-70
2023/09/12 00:11:44;;;;;;;9.98;9.18;;;24.90;99.90;;;;;;6228567;28;89059;-70
2023/09/12 00:14:46;;;;;;;8.05;7.45;;;24.90;99.90;;;;;;6227941;28;89617;-70
2023/09/12 00:17:49;;;;;;;10.88;9.88;;;24.90;99.90;;;;;;6228008;28;88339;-70
2023/09/12 00:20:51;;;;;;;9.77;8.95;;;24.90;99.90;;;;;;6227765;28;88835;-70
2023/09/12 00:23:53;;;;;;;10.40;9.40;;;24.90;99.90;;;;;;6228936;28;89000;-70
2023/09/12 00:26:56;;;;;;;9.93;9.00;;;24.90;99.90;;;;;;6226800;28;88925;-70
2023/09/12 00:29:58;;;;;;;10.93;10.00;;;24.90;99.90;;;;;;6228109;28;89119;-70
2023/09/12 00:33:00;;;;;;;9.40;8.60;;;24.90;99.90;;;;;;6226341;28;89123;-70
2023/09/12 00:36:02;;;;;;;9.82;8.82;;;24.90;99.90;;;;;;6217151;28;89030;-70
2023/09/12 00:39:04;;;;;;;9.80;9.00;;;24.90;99.90;;;;;;6228301;28;89044;-70
2023/09/12 00:42:08;;;;;;;9.40;8.60;;;24.90;99.90;;;;;;6224084;28;88999;-72
2023/09/12 00:45:10;;;;;;;10.82;9.80;;;24.90;99.90;;;;;;6229271;28;88945;-70
2023/09/12 00:48:14;;;;;;;8.80;8.00;;;24.90;99.90;;;;;;6223160;28;88333;-70
2023/09/12 00:51:17;;;;;;;10.80;9.50;;;24.90;99.90;;;;;;6222476;28;89228;-69
2023/09/12 00:54:19;;;;;;;9.32;8.52;;;24.90;99.90;;;;;;6229626;28;89026;-71
2023/09/12 00:57:23;;;;;;;10.60;9.70;;;24.90;99.90;;;;;;6222940;28;90529;-71
2023/09/12 01:00:25;;;;;;;8.77;7.97;;;24.90;99.90;;;;;;6225111;28;88793;-70
2023/09/12 01:03:28;;;;;;;8.35;7.65;;;24.90;99.90;;;;;;6228067;28;89121;-70
2023/09/12 01:06:32;;;;;;;10.68;9.57;;;24.90;99.90;;;;;;6224210;28;89022;-70
2023/09/12 01:09:35;;;;;;;10.23;9.27;;;24.80;99.90;;;;;;6231447;28;89370;-70
2023/09/12 01:12:38;;;;;;;9.30;8.50;;;24.80;99.90;;;;;;6233039;28;89078;-70
2023/09/12 01:15:41;;;;;;;9.15;8.32;;;24.80;99.90;;;;;;6231975;28;89048;-70
2023/09/12 01:18:45;;;;;;;10.45;9.55;;;24.80;99.90;;;;;;6232534;28;88433;-70
2023/09/12 01:22:22;;;;;;;8.23;7.53;;;24.80;99.90;;;;;;6232179;28;89429;-70
2023/09/12 01:25:51;;;;;;;9.98;9.07;;;24.80;99.90;;;;;;6229593;28;89390;-70
2023/09/12 01:28:58;;;;;;;9.90;9.00;;;24.80;99.90;;;;;;6230297;28;90074;-69
2023/09/12 01:32:01;;;;;;;10.15;9.23;;;24.80;99.90;;;;;;6221844;28;89532;-70
2023/09/12 01:35:03;;;;;;;7.30;6.70;;;24.80;99.90;;;;;;6227206;28;88254;-69
2023/09/12 01:38:05;;;;;;;10.10;9.13;;;24.80;99.90;;;;;;6225562;28;90429;-69
2023/09/12 01:41:08;;;;;;;10.52;9.57;;;24.80;99.90;;;;;;6225317;28;90253;-70
2023/09/12 01:44:14;;;;;;;10.43;9.40;;;24.80;99.90;;;;;;6225600;28;89475;-70
2023/09/12 01:47:20;;;;;;;10.10;9.10;;;24.80;99.90;;;;;;6222357;28;88784;-71
2023/09/12 01:50:23;;;;;;;11.07;9.93;;;24.80;99.90;;;;;;6228300;28;88314;-71
2023/09/12 01:53:25;;;;;;;10.50;9.55;;;24.80;99.90;;;;;;6232407;28;89675;-71
2023/09/12 01:56:26;;;;;;;10.50;9.45;;;24.80;99.90;;;;;;6222795;28;89264;-71
2023/09/12 01:59:31;;;;;;;9.15;8.30;;;24.80;99.90;;;;;;6227878;28;89978;-70
2023/09/12 02:02:33;;;;;;;10.02;9.13;;;24.70;99.90;;;;;;6219085;28;88981;-70
2023/09/12 02:05:35;;;;;;;9.70;8.90;;;24.80;99.90;;;;;;6230116;28;87961;-70
2023/09/12 02:08:37;;;;;;;9.82;8.93;;;24.80;99.90;;;;;;6224067;28;89446;-70
2023/09/12 02:11:39;;;;;;;9.80;8.88;;;24.70;99.90;;;;;;6220514;28;89033;-70
2023/09/12 02:14:42;;;;;;;8.48;7.70;;;24.70;99.90;;;;;;6228248;28;89442;-70
2023/09/12 02:17:44;;;;;;;10.05;9.07;;;24.80;99.90;;;;;;6214475;28;89034;-70
2023/09/12 02:20:48;;;;;;;9.80;9.00;;;24.80;99.90;;;;;;6228158;28;87642;-71
2023/09/12 02:23:50;;;;;;;10.18;9.25;;;24.80;99.90;;;;;;6218878;28;89263;-70
2023/09/12 02:26:52;;;;;;;9.60;8.70;;;24.70;99.90;;;;;;6223898;28;88999;-70
2023/09/12 02:29:55;;;;;;;10.38;9.38;;;24.70;99.90;;;;;;6229980;28;90030;-70
2023/09/12 02:32:57;;;;;;;9.93;9.13;;;24.70;99.90;;;;;;6228925;28;88979;-70
2023/09/12 02:35:59;;;;;;;10.00;9.13;;;24.70;99.90;;;;;;6230537;28;89484;-69
2023/09/12 02:39:02;;;;;;;10.80;9.80;;;24.70;99.90;;;;;;6214579;28;88300;-69
2023/09/12 02:42:05;;;;;;;10.82;9.82;;;24.70;99.90;;;;;;6226148;28;89344;-70
2023/09/12 02:45:10;;;;;;;10.18;9.30;;;24.70;99.90;;;;;;6226938;28;87947;-69
2023/09/12 02:48:12;;;;;;;10.13;9.23;;;24.70;99.90;;;;;;6221138;28;89003;-69
2023/09/12 02:51:14;;;;;;;10.85;9.65;;;24.70;99.90;;;;;;6220787;28;87735;-69
2023/09/12 02:54:15;;;;;;;10.77;9.77;;;24.70;99.90;;;;;;6228776;28;89086;-69
2023/09/12 02:57:17;;;;;;;9.50;8.75;;;24.70;99.90;;;;;;6222996;28;88201;-69
2023/09/12 03:00:21;;;;;;;10.15;9.23;;;24.70;99.90;;;;;;6229580;28;90093;-69
2023/09/12 03:03:23;;;;;;;9.00;8.30;;;24.70;99.90;;;;;;6230949;28;89058;-69
2023/09/12 03:06:25;;;;;;;9.07;8.27;;;24.70;99.90;;;;;;6224281;28;89946;-70
2023/09/12 03:09:27;;;;;;;9.82;9.02;;;24.70;99.90;;;;;;6216515;28;89097;-70
2023/09/12 03:12:29;;;;;;;8.77;8.07;;;24.70;99.90;;;;;;6229049;28;89416;-70
2023/09/12 03:15:37;;;;;;;10.10;9.30;;;24.70;99.90;;;;;;6229505;28;89002;-70
2023/09/12 03:18:39;;;;;;;10.55;9.63;;;24.70;99.90;;;;;;6230006;28;89096;-70
2023/09/12 03:21:41;;;;;;;10.18;9.30;;;24.70;99.90;;;;;;6227014;28;88326;-71
2023/09/12 03:24:44;;;;;;;10.55;9.52;;;24.60;99.90;;;;;;6220260;28;89524;-69
2023/09/12 03:27:46;;;;;;;10.48;9.57;;;24.70;99.90;;;;;;6223751;28;89329;-70
2023/09/12 03:30:50;;;;;;;10.50;9.60;;;24.70;99.90;;;;;;6217743;28;88886;-70
2023/09/12 03:33:52;;;;;;;10.00;9.10;;;24.60;99.90;;;;;;6223799;28;89084;-70
2023/09/12 03:36:54;;;;;;;10.35;9.50;;;24.60;99.90;;;;;;6231168;28;89024;-70
2023/09/12 03:39:55;;;;;;;11.40;9.90;;;24.60;99.90;;;;;;6217292;28;89161;-70
2023/09/12 03:42:57;;;;;;;9.63;8.82;;;24.60;99.90;;;;;;6234780;28;89002;-70
2023/09/12 03:46:01;;;;;;;10.13;9.13;;;24.60;99.90;;;;;;6227908;28;89154;-69
2023/09/12 03:49:03;;;;;;;9.63;8.82;;;24.60;99.90;;;;;;6222793;28;89030;-69
2023/09/12 03:52:06;;;;;;;9.35;8.55;;;24.60;99.90;;;;;;6227767;28;87585;-69
2023/09/12 03:55:08;;;;;;;8.77;8.07;;;24.60;99.90;;;;;;6229319;28;89989;-69
2023/09/12 03:58:10;;;;;;;9.50;8.60;;;24.60;99.90;;;;;;6226733;28;88917;-70
2023/09/12 04:01:15;;;;;;;9.80;9.00;;;24.60;99.90;;;;;;6228726;28;90065;-69
2023/09/12 04:04:17;;;;;;;9.77;8.98;;;24.60;99.90;;;;;;6223635;28;89113;-69
2023/09/12 04:07:19;;;;;;;10.63;9.52;;;24.50;99.90;;;;;;6227802;28;89055;-70
2023/09/12 04:10:21;;;;;;;10.63;9.60;;;24.60;99.90;;;;;;6228736;28;89469;-70
2023/09/12 04:13:23;;;;;;;10.57;9.55;;;24.60;99.90;;;;;;6223004;28;89185;-69
2023/09/12 04:16:27;;;;;;;11.05;9.95;;;24.60;99.90;;;;;;6228885;28;89084;-69
2023/09/12 04:19:29;;;;;;;9.90;9.00;;;24.50;99.90;;;;;;6226065;28;89073;-70
2023/09/12 04:22:31;;;;;;;10.27;9.38;;;24.50;99.90;;;;;;6226445;28;88373;-70
2023/09/12 04:25:33;;;;;;;9.88;8.98;;;24.50;99.90;;;;;;6227635;28;89407;-69
2023/09/12 04:28:35;;;;;;;10.00;9.10;;;24.60;99.90;;;;;;6220788;28;89066;-69
2023/09/12 04:31:38;;;;;;;10.40;9.40;;;24.50;99.90;;;;;;6229280;28;90032;-69
2023/09/12 04:34:43;;;;;;;10.27;9.38;;;24.50;99.90;;;;;;6224181;28;88966;-70
2023/09/12 04:37:45;;;;;;;9.90;9.05;;;24.50;99.90;;;;;;6227833;28;89379;-70
2023/09/12 04:40:55;;;;;;;10.32;9.43;;;24.50;99.90;;;;;;6229742;28;89234;-69
2023/09/12 04:43:58;;;;;;;8.73;7.93;;;24.50;99.90;;;;;;6223080;28;89605;-69
2023/09/12 04:47:02;;;;;;;10.32;9.43;;;24.50;99.90;;;;;;6229973;28;89136;-70
2023/09/12 04:50:05;;;;;;;10.50;9.40;;;24.50;99.90;;;;;;6232235;28;89188;-70
2023/09/12 04:53:06;;;;;;;9.60;8.77;;;24.50;99.90;;;;;;6230150;28;88407;-69
2023/09/12 04:56:09;;;;;;;9.82;8.93;;;24.50;99.90;;;;;;6234238;28;89062;-69
2023/09/12 04:59:11;;;;;;;9.77;8.88;;;24.50;99.90;;;;;;6232047;28;89088;-69
2023/09/12 05:02:15;;;;;;;9.90;9.00;;;24.50;99.90;;;;;;6232107;28;90068;-69
2023/09/12 05:05:17;;;;;;;10.30;9.40;;;24.50;99.90;;;;;;6230406;28;89269;-68
2023/09/12 05:08:19;;;;;;;10.52;9.30;;;24.50;99.90;;;;;;6220559;28;89105;-69
2023/09/12 05:11:22;;;;;;;10.48;9.38;;;24.50;99.90;;;;;;6232566;28;89382;-69
2023/09/12 05:14:24;;;;;;;10.05;9.18;;;24.50;99.90;;;;;;6231714;28;89108;-69
2023/09/12 05:17:28;;;;;;;10.73;9.60;;;24.50;99.90;;;;;;6225258;28;89558;-68
2023/09/12 05:20:30;;;;;;;10.27;9.27;;;24.40;99.90;;;;;;6230045;28;88822;-69
2023/09/12 05:23:32;;;;;;;10.02;9.02;;;24.50;99.90;;;;;;6222205;28;88363;-65
2023/09/12 05:26:34;;;;;;;10.43;9.43;;;24.50;99.90;;;;;;6233324;28;89158;-68
2023/09/12 05:29:36;;;;;;;10.32;9.30;;;24.50;99.90;;;;;;6231945;28;89184;-68
2023/09/12 05:32:39;;;;;;;10.90;9.90;;;24.50;99.90;;;;;;6229353;28;90023;-70
2023/09/12 05:35:41;;;;;;;11.25;10.15;;;24.50;99.90;;;;;;6225663;28;89304;-69
2023/09/12 05:38:44;;;;;;;12.20;10.25;;;24.50;99.90;;;;;;6230233;28;89119;-71
2023/09/12 05:41:45;;;;;;;12.73;11.45;;;24.50;99.90;;;;;;6235278;28;89037;-69
2023/09/12 05:44:48;;;;;;;12.02;10.93;;;24.60;99.90;;;;;;6227487;28;89038;-69
2023/09/12 05:47:52;;;;;;;12.50;11.27;;;24.60;99.90;;;;;;6229531;28;89252;-69
2023/09/12 05:50:54;;;;;;;11.10;10.00;;;24.60;99.90;;;;;;6232514;28;89039;-69
2023/09/12 05:53:56;;;;;;;11.05;9.95;;;24.70;99.90;;;;;;6231333;28;87611;-68
2023/09/12 05:56:58;;;;;;;10.95;9.85;;;24.60;99.90;;;;;;6232709;28;89370;-68
2023/09/12 06:00:00;;;;;;;10.68;9.77;;;24.60;99.90;;;;;;6233474;28;91951;-69
2023/09/12 06:03:04;;;;;;;13.90;10.15;;;24.60;99.90;;;;;;6231534;28;90227;-68
2023/09/12 06:06:06;;;;;;;10.32;9.45;;;24.60;99.90;;;;;;6229290;28;89123;-69
2023/09/12 06:09:09;;;;;;;10.80;9.70;;;24.60;99.90;;;;;;6231025;28;89521;-69
2023/09/12 06:12:11;;;;;;;11.52;10.35;;;24.60;99.90;;;;;;6233247;28;89102;-68
2023/09/12 06:15:13;;;;;;;11.10;10.20;;;24.50;99.90;;;;;;6231734;28;89032;-68
2023/09/12 06:18:18;;;;;;;11.20;10.13;;;24.50;99.90;;;;;;6228803;28;88986;-70
2023/09/12 06:21:21;;;;;;;11.95;10.60;;;24.60;99.90;;;;;;6230061;28;89019;-71
2023/09/12 06:24:23;;;;;;;11.00;10.00;;;24.50;99.90;;;;;;6230889;28;87589;-71
2023/09/12 06:27:25;;;;;;;10.60;9.50;;;24.50;99.90;;;;;;6231032;28;89059;-72
2023/09/12 06:30:27;;;;;;;10.43;9.45;;;24.50;99.90;;;;;;6232040;28;89068;-71
2023/09/12 06:33:31;;;;;;;11.18;10.07;;;24.50;99.90;;;;;;6231851;28;90019;-70
2023/09/12 06:36:32;;;;;;;11.07;9.95;;;24.60;99.90;;;;;;6228961;28;89173;-69
2023/09/12 06:39:34;;;;;;;11.00;9.90;;;24.50;99.90;;;;;;6231899;28;89151;-69
2023/09/12 06:42:36;;;;;;;10.77;9.77;;;24.50;99.90;;;;;;6237707;28;90169;-71
2023/09/12 06:45:38;;;;;;;10.25;9.25;;;24.60;99.90;;;;;;6230679;27;89035;-70
2023/09/12 06:48:42;;;;;;;12.13;10.43;;;24.50;99.90;;;;;;6220027;28;88995;-70
2023/09/12 06:51:44;;;;;;;11.25;10.25;;;24.60;99.90;;;;;;6229144;28;88983;-71
2023/09/12 06:54:46;;;;;;;11.02;10.02;;;24.50;99.90;;;;;;6229122;28;88694;-70
2023/09/12 06:57:47;;;;;;;11.38;10.48;;;24.50;99.90;;;;;;6229808;28;89327;-70
2023/09/12 07:00:49;;;;;;;11.02;10.07;;;24.50;99.90;;;;;;6229508;28;88940;-69
2023/09/12 07:03:54;;;;;;;12.10;10.85;;;24.60;99.90;;;;;;6230036;28;89948;-70
2023/09/12 07:06:56;;;;;;;11.50;10.50;;;24.60;99.90;;;;;;6229536;28;89106;-70
2023/09/12 07:09:59;;;;;;;11.88;10.73;;;24.50;99.90;;;;;;6226641;28;89007;-69
2023/09/12 07:13:01;;;;;;;12.23;11.13;;;24.50;99.90;;;;;;6229373;28;89246;-70
2023/09/12 07:16:04;;;;;;;12.10;10.90;;;24.60;99.90;;;;;;6229721;28;89206;-71
2023/09/12 07:19:07;;;;;;;12.27;11.07;;;24.50;99.90;;;;;;6230204;28;89486;-70
2023/09/12 07:22:09;;;;;;;12.02;10.88;;;24.50;99.90;;;;;;6228784;28;88999;-73
2023/09/12 07:25:12;;;;;;;12.52;11.32;;;24.60;99.90;;;;;;6229899;28;88298;-73
2023/09/12 07:28:14;;;;;;;11.63;10.52;;;24.50;99.90;;;;;;6230104;28;89492;-71
2023/09/12 07:31:17;;;;;;;12.88;11.48;;;24.50;99.90;;;;;;6221043;28;89147;-71
2023/09/12 07:34:21;;;;;;;13.90;11.68;;;24.60;99.90;;;;;;6229129;28;89863;-71
2023/09/12 07:37:23;;;;;;;13.63;10.90;;;24.50;99.90;;;;;;6229240;28;89026;-70
2023/09/12 07:40:25;;;;;;;12.70;10.93;;;24.60;99.90;;;;;;6229382;28;89297;-71
2023/09/12 07:43:27;;;;;;;12.77;10.50;;;24.60;99.90;;;;;;6229194;28;89165;-71
2023/09/12 07:46:29;;;;;;;12.13;10.93;;;24.60;99.90;;;;;;6226048;28;89050;-71
2023/09/12 07:49:32;;;;;;;12.15;10.95;;;24.60;99.90;;;;;;6229934;28;89114;-70
2023/09/12 07:52:34;;;;;;;13.10;11.73;;;24.60;99.90;;;;;;6228950;28;89130;-72
2023/09/12 07:55:45;;;;;;;15.00;11.65;;;24.70;99.90;;;;;;6230155;28;88290;-72
2023/09/12 07:58:47;;;;;;;14.02;10.70;;;24.70;99.90;;;;;;6216175;28;87986;-70
2023/09/12 08:01:49;;;;;;;14.35;10.93;;;24.60;99.90;;;;;;6224651;28;89037;-70
2023/09/12 08:04:53;;;;;;;12.38;11.20;;;24.70;99.90;;;;;;6226226;28;89955;-70
2023/09/12 08:07:55;;;;;;;11.15;10.05;;;24.70;99.90;;;;;;6226453;28;88162;-71
2023/09/12 08:10:58;;;;;;;11.60;10.40;;;24.70;99.90;;;;;;6229174;28;88162;-71
2023/09/12 08:14:00;;;;;;;11.70;10.52;;;24.70;99.90;;;;;;6229222;28;87961;-71
2023/09/12 08:17:02;;;;;;;11.65;10.57;;;24.70;99.90;;;;;;6229562;28;89098;-71
2023/09/12 08:20:06;;;;;;;13.10;10.90;;;24.60;99.90;;;;;;6231137;28;89090;-72
2023/09/12 08:23:08;;;;;;;16.15;10.65;;;24.60;99.90;;;;;;6233300;28;89140;-71
2023/09/12 08:26:11;;;;;;;12.85;11.00;;;24.60;99.90;;;;;;6233826;28;88352;-71
2023/09/12 08:29:13;;;;;;;11.57;10.38;;;24.60;99.90;;;;;;6233117;28;88033;-71
2023/09/12 08:32:15;;;;;;;11.95;10.13;;;24.60;99.90;;;;;;6233175;28;89484;-71
2023/09/12 08:35:19;;;;;;;12.57;10.60;;;24.60;99.90;;;;;;6228630;28;90040;-71
2023/09/12 08:38:24;;;;;;;11.63;10.52;;;24.70;99.90;;;;;;6223467;28;89094;-70
2023/09/12 08:41:26;;;;;;;10.98;9.90;;;24.60;99.90;;;;;;6232196;28;88376;-72
2023/09/12 08:44:27;;;;;;;13.73;11.80;;;24.60;99.90;;;;;;6234264;28;89039;-72
2023/09/12 08:47:30;;;;;;;19.50;14.13;;;24.70;99.90;;;;;;6232749;28;87922;-72
2023/09/12 08:50:34;;;;;;;19.80;14.80;;;24.70;99.90;;;;;;6231625;28;89053;-72
2023/09/12 08:53:36;;;;;;;24.13;15.13;;;24.70;99.90;;;;;;6233441;28;89061;-72
2023/09/12 08:56:41;;;;;;;17.35;14.40;;;24.70;99.90;;;;;;6232645;28;88081;-72
2023/09/12 08:59:47;;;;;;;21.60;14.73;;;24.60;99.90;;;;;;6232049;28;88981;-71
2023/09/12 09:02:51;;;;;;;21.00;14.00;;;24.60;99.90;;;;;;6231925;28;89251;-71
2023/09/12 09:05:56;;;;;;;19.67;14.32;;;24.70;99.90;;;;;;6232425;28;90340;-71
2023/09/12 09:08:59;;;;;;;16.13;13.65;;;24.70;99.90;;;;;;6219285;28;89022;-71
2023/09/12 09:12:02;;;;;;;16.48;12.50;;;24.60;99.90;;;;;;6231383;28;89103;-71
2023/09/12 09:15:22;;;;;;;14.98;12.80;;;24.70;99.90;;;;;;6233120;28;89016;-70
2023/09/12 09:18:24;;;;;;;18.70;13.50;;;24.70;99.90;;;;;;6232222;28;88254;-71
2023/09/12 09:21:30;;;;;;;17.45;13.40;;;24.70;99.90;;;;;;6233150;28;89142;-72
2023/09/12 09:24:32;;;;;;;19.88;13.18;;;24.70;99.90;;;;;;6233265;28;88127;-71
2023/09/12 09:27:35;;;;;;;18.25;13.73;;;24.70;99.90;;;;;;6233174;28;88861;-71
2023/09/12 09:30:42;;;;;;;19.83;13.95;;;24.70;99.90;;;;;;6230898;28;89610;-71
2023/09/12 09:33:48;;;;;;;18.58;14.25;;;24.70;99.90;;;;;;6232693;28;89027;-71
2023/09/12 09:36:53;;;;;;;18.90;14.20;;;24.70;99.90;;;;;;6232322;28;90160;-71
2023/09/12 09:39:55;;;;;;;19.50;13.82;;;24.70;99.90;;;;;;6231555;28;89132;-71
2023/09/12 09:42:59;;;;;;;16.58;13.30;;;24.70;99.90;;;;;;6232906;28;89539;-71
2023/09/12 09:46:01;;;;;;;16.73;13.77;;;24.70;99.90;;;;;;6233200;28;88905;-71
2023/09/12 09:49:06;;;;;;;19.90;14.32;;;24.70;99.90;;;;;;6230466;28;89150;-71
2023/09/12 09:52:09;;;;;;;15.95;12.73;;;24.70;99.90;;;;;;6233532;28;88963;-72
2023/09/12 09:55:15;;;;;;;17.08;12.93;;;24.70;99.90;;;;;;6232470;28;87943;-72
2023/09/12 09:58:17;;;;;;;16.13;12.88;;;24.70;99.90;;;;;;6232274;28;87835;-71
2023/09/12 10:01:21;;;;;;;16.45;13.27;;;24.70;99.90;;;;;;6232521;28;88979;-72
2023/09/12 10:04:24;;;;;;;16.10;13.35;;;24.70;99.90;;;;;;6232533;28;87976;-71
2023/09/12 10:07:29;;;;;;;16.08;12.80;;;24.70;99.90;;;;;;6232142;28;90322;-71
2023/09/12 10:10:31;;;;;;;17.83;12.85;;;24.70;99.90;;;;;;6231626;28;89107;-71
2023/09/12 10:13:36;;;;;;;17.63;13.20;;;24.80;99.90;;;;;;6231655;28;89413;-71
2023/09/12 10:16:45;;;;;;;15.63;13.10;;;24.70;99.90;;;;;;6232065;28;89045;-71
2023/09/12 10:19:56;;;;;;;16.55;13.45;;;24.70;99.90;;;;;;6230867;28;89075;-72
2023/09/12 10:23:10;;;;;;;15.57;12.90;;;24.70;99.90;;;;;;6232812;28;89084;-71
2023/09/12 10:26:14;;;;;;;14.65;12.57;;;24.70;99.90;;;;;;6232570;28;89000;-72
2023/09/12 10:29:16;;;;;;;15.05;12.52;;;24.70;99.90;;;;;;6230830;28;88260;-70
2023/09/12 10:32:20;;;;;;;14.68;12.57;;;24.70;99.90;;;;;;6231290;28;89138;-71
2023/09/12 10:35:22;;;;;;;13.98;12.48;;;24.70;99.90;;;;;;6231943;28;89097;-71
2023/09/12 10:38:29;;;;;;;15.82;12.38;;;24.70;99.90;;;;;;6230474;28;89986;-71
2023/09/12 10:41:32;;;;;;;13.88;12.07;;;24.70;99.90;;;;;;6230664;28;89056;-71
2023/09/12 10:44:35;;;;;;;13.30;12.00;;;24.70;99.90;;;;;;6231428;28;89089;-71
2023/09/12 10:47:38;;;;;;;12.93;11.52;;;24.70;99.90;;;;;;6231410;28;89050;-71
2023/09/12 10:50:41;;;;;;;14.45;12.02;;;24.70;99.90;;;;;;6229032;28;89469;-72
2023/09/12 10:53:49;;;;;;;14.30;11.77;;;24.80;99.90;;;;;;6231980;28;89158;-71
2023/09/12 10:57:04;;;;;;;15.70;11.95;;;24.80;99.90;;;;;;6231762;28;89458;-71
2023/09/12 11:00:14;;;;;;;15.45;12.35;;;24.70;99.90;;;;;;6219650;28;88197;-71
2023/09/12 11:03:39;;;;;;;13.50;12.10;;;24.80;99.90;;;;;;6219414;28;88206;-71
2023/09/12 11:06:42;;;;;;;14.40;11.98;;;24.80;99.90;;;;;;6221852;28;89105;-71
2023/09/12 11:09:45;;;;;;;14.15;11.93;;;24.80;99.90;;;;;;6231136;28;90028;-72
2023/09/12 11:12:48;;;;;;;12.65;11.15;;;24.80;99.90;;;;;;6219820;28;89131;-72
2023/09/12 11:16:12;;;;;;;12.73;11.23;;;24.80;99.90;;;;;;6219476;28;89194;-71
2023/09/12 11:19:16;;;;;;;12.88;11.57;;;24.80;99.90;;;;;;6231487;28;91474;-71
2023/09/12 11:22:28;;;;;;;12.45;11.15;;;24.80;99.90;;;;;;6231048;28;89117;-72
2023/09/12 11:25:33;;;;;;;12.30;11.02;;;24.80;99.90;;;;;;6222353;28;89013;-72
2023/09/12 11:28:35;;;;;;;14.05;12.00;;;24.80;99.90;;;;;;6230620;28;88968;-72
2023/09/12 11:31:41;;;;;;;14.75;11.25;;;24.70;99.90;;;;;;6231279;28;88262;-72
2023/09/12 11:34:44;;;;;;;12.52;11.10;;;24.80;99.90;;;;;;6230725;28;89265;-72
2023/09/12 11:37:49;;;;;;;13.30;10.82;;;24.80;99.90;;;;;;6230484;28;89027;-71
2023/09/12 11:40:53;;;;;;;12.63;11.30;;;24.80;99.90;;;;;;6229425;28;89999;-72
2023/09/12 11:43:56;;;;;;;11.57;10.27;;;24.80;99.90;;;;;;6230190;28;89363;-72
2023/09/12 11:47:03;;;;;;;11.60;10.45;;;24.80;99.90;;;;;;6230405;28;88977;-72
2023/09/12 11:50:05;;;;;;;11.68;10.57;;;24.80;99.90;;;;;;6229637;28;88961;-72
2023/09/12 11:53:09;;;;;;;11.60;10.43;;;24.80;99.90;;;;;;6230496;28;89046;-72
2023/09/12 11:56:14;;;;;;;11.82;10.50;;;24.80;99.90;;;;;;6229487;28;89067;-72
2023/09/12 11:59:18;;;;;;;11.77;10.48;;;24.80;99.90;;;;;;6229499;28;89023;-72
2023/09/12 12:02:20;;;;;;;12.13;10.02;;;24.80;99.90;;;;;;6230968;28;88341;-72
2023/09/12 12:05:23;;;;;;;11.70;10.60;;;24.80;99.90;;;;;;6229400;28;89668;-72
2023/09/12 12:08:27;;;;;;;11.90;10.70;;;24.80;99.90;;;;;;6229256;28;89131;-72
2023/09/12 12:11:31;;;;;;;11.68;10.48;;;24.80;99.90;;;;;;6229648;28;89911;-72
2023/09/12 12:14:36;;;;;;;11.35;10.18;;;24.80;99.90;;;;;;6229394;28;87952;-72
2023/09/12 12:17:40;;;;;;;11.27;10.18;;;24.80;99.90;;;;;;6229728;28;88995;-72
2023/09/12 12:20:43;;;;;;;10.93;9.82;;;24.80;99.90;;;;;;6229223;28;89170;-72
2023/09/12 12:23:45;;;;;;;11.30;10.18;;;24.80;99.90;;;;;;6230366;28;89368;-71
2023/09/12 12:26:48;;;;;;;12.18;10.82;;;24.80;99.90;;;;;;6230005;28;89120;-72
2023/09/12 12:29:50;;;;;;;11.05;10.00;;;24.80;99.90;;;;;;6228339;28;89326;-71
2023/09/12 12:32:52;;;;;;;11.18;10.18;;;24.80;99.90;;;;;;6229699;28;88295;-71
2023/09/12 12:36:02;;;;;;;10.98;9.88;;;24.80;99.90;;;;;;6229773;28;88939;-71
2023/09/12 12:39:04;;;;;;;10.90;9.82;;;24.90;99.90;;;;;;6230577;28;89022;-71
2023/09/12 12:42:07;;;;;;;11.32;10.20;;;24.90;99.90;;;;;;6230324;28;90073;-71
2023/09/12 12:45:13;;;;;;;10.50;9.50;;;24.80;99.90;;;;;;6230253;28;87945;-71
2023/09/12 12:48:15;;;;;;;11.68;10.48;;;24.90;99.90;;;;;;6228007;28;88987;-72
2023/09/12 12:51:19;;;;;;;10.90;9.80;;;24.90;99.90;;;;;;6228993;28;89383;-71
2023/09/12 12:54:23;;;;;;;11.30;10.10;;;24.90;99.90;;;;;;6230518;28;89087;-72
2023/09/12 12:57:27;;;;;;;11.10;10.00;;;24.90;99.90;;;;;;6215726;28;87933;-72
2023/09/12 13:00:29;;;;;;;11.10;9.80;;;24.90;99.90;;;;;;6222937;28;89040;-72
2023/09/12 13:03:31;;;;;;;11.45;10.25;;;24.90;99.90;;;;;;6228222;28;88196;-72
2023/09/12 13:06:35;;;;;;;11.48;10.38;;;24.90;99.90;;;;;;6227832;28;88091;-72
2023/09/12 13:09:38;;;;;;;11.07;10.02;;;24.80;99.90;;;;;;6230530;28;89327;-73
2023/09/12 13:12:46;;;;;;;10.82;9.82;;;24.90;99.90;;;;;;6232603;28;89937;-71
2023/09/12 13:15:48;;;;;;;10.30;9.38;;;24.90;99.90;;;;;;6233589;28;90699;-71
2023/09/12 13:18:50;;;;;;;10.90;9.82;;;24.90;99.90;;;;;;6232408;28;89403;-71
2023/09/12 13:21:52;;;;;;;11.10;10.00;;;24.90;99.90;;;;;;6233330;28;87963;-71
2023/09/12 13:24:54;;;;;;;10.73;9.63;;;24.90;99.90;;;;;;6232340;28;90197;-71
2023/09/12 13:27:57;;;;;;;11.20;10.20;;;24.90;99.90;;;;;;6232938;28;89109;-71
2023/09/12 13:30:59;;;;;;;10.65;9.65;;;24.90;99.90;;;;;;6232052;28;89097;-70
2023/09/12 13:34:02;;;;;;;11.02;9.93;;;24.90;99.90;;;;;;6233258;28;88774;-71
2023/09/12 13:37:05;;;;;;;11.10;10.00;;;24.90;99.90;;;;;;6232902;28;88927;-72
2023/09/12 13:40:08;;;;;;;15.55;10.02;;;24.90;99.90;;;;;;6233408;28;89059;-72
2023/09/12 13:43:12;;;;;;;13.32;10.45;;;24.90;99.90;;;;;;6231801;28;90026;-72
2023/09/12 13:46:16;;;;;;;10.82;9.77;;;24.90;99.90;;;;;;6232474;28;88516;-72
2023/09/12 13:49:18;;;;;;;10.60;9.60;;;24.90;99.90;;;;;;6232691;28;89015;-72
2023/09/12 13:52:20;;;;;;;11.23;10.00;;;24.90;99.90;;;;;;6232539;28;89050;-72
2023/09/12 13:55:23;;;;;;;10.88;9.77;;;24.90;99.90;;;;;;6232291;28;89040;-71
2023/09/12 13:58:26;;;;;;;10.80;9.73;;;24.90;99.90;;;;;;6233795;28;89586;-71
2023/09/12 14:01:29;;;;;;;10.73;9.55;;;24.90;99.90;;;;;;6232641;28;89006;-72
2023/09/12 14:04:32;;;;;;;11.20;9.75;;;24.90;99.90;;;;;;6233677;28;87198;-71
2023/09/12 14:07:35;;;;;;;10.43;9.52;;;24.90;99.90;;;;;;6232894;28;89315;-72
2023/09/12 14:10:37;;;;;;;11.63;10.30;;;24.90;99.90;;;;;;6231498;28;89134;-73
2023/09/12 14:13:42;;;;;;;10.75;9.32;;;25.00;99.90;;;;;;6231349;28;90555;-72
2023/09/12 14:16:48;;;;;;;10.77;9.60;;;25.00;99.90;;;;;;6231766;28;87834;-73
2023/09/12 14:19:52;;;;;;;10.75;9.65;;;25.00;99.90;;;;;;6225370;28;89066;-72
2023/09/12 14:22:57;;;;;;;10.52;9.50;;;25.00;99.90;;;;;;6232232;28;87976;-72
2023/09/12 14:26:02;;;;;;;11.05;9.77;;;25.00;99.90;;;;;;6232614;28;90296;-74
2023/09/12 14:29:07;;;;;;;11.82;10.18;;;25.00;99.90;;;;;;6232225;28;88041;-72
2023/09/12 14:32:11;;;;;;;11.43;10.23;;;24.90;99.90;;;;;;6230506;28;88344;-73
2023/09/12 14:35:15;;;;;;;11.43;9.52;;;24.90;99.90;;;;;;6221169;28;87295;-73
2023/09/12 14:38:20;;;;;;;10.13;9.27;;;25.00;99.90;;;;;;6232073;28;87980;-72
2023/09/12 14:41:24;;;;;;;10.13;9.23;;;24.90;99.90;;;;;;6231822;28;88622;-73
2023/09/12 14:44:33;;;;;;;10.05;9.15;;;25.00;99.90;;;;;;6231916;28;88053;-73
2023/09/12 14:47:37;;;;;;;10.88;9.60;;;24.90;99.90;;;;;;6220846;28;87522;-73
2023/09/12 14:50:42;;;;;;;10.80;9.70;;;24.90;99.90;;;;;;6232735;28;88064;-73
2023/09/12 14:53:46;;;;;;;10.13;9.23;;;25.00;99.90;;;;;;6233246;28;87966;-73
2023/09/12 14:56:51;;;;;;;10.35;9.35;;;25.00;99.90;;;;;;6233257;28;89301;-72
2023/09/12 14:59:57;;;;;;;10.48;9.48;;;25.00;99.90;;;;;;6231980;28;88255;-73
2023/09/12 15:03:01;;;;;;;10.35;9.35;;;25.00;99.90;;;;;;6230324;28;87937;-72
2023/09/12 15:06:08;;;;;;;10.68;9.57;;;25.00;99.90;;;;;;6231764;28;86675;-73
2023/09/12 15:09:11;;;;;;;10.38;9.48;;;25.00;99.90;;;;;;6231648;28;88268;-72
2023/09/12 15:12:15;;;;;;;11.45;10.05;;;25.10;99.90;;;;;;6230969;28;88263;-73
2023/09/12 15:15:19;;;;;;;10.98;9.98;;;25.00;99.90;;;;;;6230262;28;88997;-72
2023/09/12 15:18:24;;;;;;;10.27;9.27;;;25.00;99.90;;;;;;6229870;28;87987;-72
2023/09/12 15:21:26;;;;;;;10.15;9.25;;;25.00;99.90;;;;;;6224684;28;88010;-73
2023/09/12 15:24:29;;;;;;;10.40;9.48;;;25.00;99.90;;;;;;6231482;28;89309;-72
2023/09/12 15:27:34;;;;;;;10.80;9.82;;;25.00;99.90;;;;;;6229895;28;88069;-72
2023/09/12 15:30:39;;;;;;;10.27;9.38;;;25.00;99.90;;;;;;6231227;28;87905;-72
2023/09/12 15:33:43;;;;;;;9.93;9.13;;;25.00;99.90;;;;;;6232390;28;88029;-72
2023/09/12 15:36:47;;;;;;;9.98;9.15;;;25.00;99.90;;;;;;6231711;28;89872;-72
2023/09/12 15:39:50;;;;;;;10.75;9.85;;;25.00;99.90;;;;;;6230573;28;88208;-72